»·PEaware :: QXE525 KDRO-KCLM

QXE525 :: KDRO-KCLM

FLIGHT INFORMATION

Flight Status: Arrived
Operator:
Horizon Air
More flights by this operator :: More flights under this callsign
Pilot: Kim B. (19519)
Aircraft: DEHAVILLAND DASH 8 400
(DH8D)
More flights by this aircraft type
Origin: KDRO Durango-La Plata Co
United States
Destination: KCLM Fairchild Intl
United States
More flights between these airports :: More routes between these airports
Route: BDROC BYI Q154 JELTI SEA
File this flight plan on PilotEdge
Remarks:
Altitude:
(Current/Filed)
24,000ft
Speed:
(Current/Filed)
321kts
Departed: 01-Nov-18 05:47 PM
Arrived: 01-Nov-18 08:55 PM
Distance/Time
Traveled:
953nm/3:08
Distance/Time
To Go:
Arrived

Flight Plot

Page will automatically refresh every two minutes.

Flight plan parsing failed; only flown route is shown


Map Options




Map Legend


Flown Route
Filed Route
Departure Airport
Arrival Airport
Navaid (VOR, NDB)
Fix

Horizontal Profiles

Position Reports

Time Latitude Longitude Heading Altitude Ground
Speed
01-Nov-18 17:31 37.159126 -107.749956 351 6692ft 0kts
01-Nov-18 17:32 37.159126 -107.749956 351 6692ft 0kts
01-Nov-18 17:33 37.159126 -107.749956 352 6692ft 0kts
01-Nov-18 17:34 37.159126 -107.749956 351 6692ft 0kts
01-Nov-18 17:35 37.159126 -107.749956 351 6692ft 0kts
01-Nov-18 17:36 37.159126 -107.749956 351 6692ft 0kts
01-Nov-18 17:37 37.159126 -107.749956 352 6692ft 0kts
01-Nov-18 17:38 37.159126 -107.749956 351 6692ft 0kts
01-Nov-18 17:39 37.159129 -107.749956 352 6692ft 0kts
01-Nov-18 17:40 37.158591 -107.749717 340 6692ft 1kts
01-Nov-18 17:41 37.158470 -107.749759 36 6692ft 0kts
01-Nov-18 17:42 37.158470 -107.749759 36 6692ft 0kts
01-Nov-18 17:43 37.158675 -107.749559 37 6692ft 8kts
01-Nov-18 17:44 37.155897 -107.751300 218 6692ft 28kts
01-Nov-18 17:45 37.147816 -107.759004 217 6692ft 40kts
01-Nov-18 17:46 37.142218 -107.764003 132 6692ft 0kts
01-Nov-18 17:47 37.142218 -107.764003 132 6692ft 0kts
01-Nov-18 17:48 37.142218 -107.764003 132 6692ft 0kts
01-Nov-18 17:49 37.142007 -107.762872 43 6692ft 7kts
01-Nov-18 17:50 37.162390 -107.744043 26 7469ft 167kts
01-Nov-18 17:51 37.200355 -107.772988 305 10908ft 186kts
01-Nov-18 17:52 37.237123 -107.817893 329 14465ft 189kts
01-Nov-18 17:53 37.292839 -107.858168 335 16177ft 252kts
01-Nov-18 17:53 37.343955 -107.891304 337 18376ft 251kts
01-Nov-18 17:54 37.406052 -107.930838 338 20613ft 252kts
01-Nov-18 17:56 37.478997 -107.977241 339 22867ft 254kts
01-Nov-18 17:56 37.531696 -108.010826 339 24171ft 258kts
01-Nov-18 17:57 37.601311 -108.055179 338 24218ft 300kts
01-Nov-18 17:58 37.678209 -108.104414 338 24219ft 318kts
01-Nov-18 17:59 37.757831 -108.155511 338 24216ft 324kts
01-Nov-18 18:00 37.833927 -108.204458 338 24213ft 326kts
01-Nov-18 18:01 37.913887 -108.256004 338 24211ft 327kts
01-Nov-18 18:02 37.994092 -108.307831 338 24211ft 327kts
01-Nov-18 18:03 38.074502 -108.359917 338 24209ft 327kts
01-Nov-18 18:04 38.154650 -108.411956 338 24216ft 328kts
01-Nov-18 18:05 38.235720 -108.464736 338 24217ft 329kts
01-Nov-18 18:06 38.317089 -108.517848 338 24192ft 330kts
01-Nov-18 18:07 38.398668 -108.571219 338 24147ft 330kts
01-Nov-18 18:08 38.473877 -108.633578 325 24231ft 335kts
01-Nov-18 18:09 38.543080 -108.713199 324 24245ft 337kts
01-Nov-18 18:10 38.611812 -108.793657 324 24243ft 337kts
01-Nov-18 18:11 38.674416 -108.867200 324 24243ft 337kts
01-Nov-18 18:12 38.743227 -108.948248 324 24241ft 337kts
01-Nov-18 18:13 38.812002 -109.029453 324 24236ft 335kts
01-Nov-18 18:14 38.879775 -109.109721 323 24228ft 329kts
01-Nov-18 18:15 38.929322 -109.168424 321 24223ft 322kts
01-Nov-18 18:16 38.994274 -109.245723 320 24216ft 315kts
01-Nov-18 18:17 39.057988 -109.321793 319 24217ft 313kts
01-Nov-18 18:18 39.121740 -109.398084 319 24230ft 313kts
01-Nov-18 18:19 39.164971 -109.449894 319 24229ft 313kts
01-Nov-18 18:20 39.228736 -109.526501 319 24227ft 314kts
01-Nov-18 18:21 39.292135 -109.602847 319 24226ft 314kts
01-Nov-18 18:22 39.355743 -109.679675 318 24230ft 314kts
01-Nov-18 18:23 39.419301 -109.756608 318 24229ft 314kts
01-Nov-18 18:24 39.483162 -109.834127 318 24228ft 314kts
01-Nov-18 18:25 39.546724 -109.911482 318 24235ft 314kts
01-Nov-18 18:26 39.610115 -109.988837 318 24277ft 313kts
01-Nov-18 18:27 39.672417 -110.065066 318 24303ft 313kts
01-Nov-18 18:28 39.733477 -110.139967 318 24303ft 313kts
01-Nov-18 18:29 39.793390 -110.213638 318 24303ft 313kts
01-Nov-18 18:30 39.855639 -110.290377 318 24302ft 312kts
01-Nov-18 18:31 39.915693 -110.364621 318 24301ft 312kts
01-Nov-18 18:32 39.970926 -110.433061 318 24299ft 312kts
01-Nov-18 18:33 40.027197 -110.502947 318 24298ft 312kts
01-Nov-18 18:34 40.087352 -110.577846 318 24297ft 311kts
01-Nov-18 18:35 40.145478 -110.650393 317 24310ft 312kts
01-Nov-18 18:36 40.205949 -110.726084 318 24316ft 314kts
01-Nov-18 18:37 40.267084 -110.802783 318 24314ft 314kts
01-Nov-18 18:38 40.326828 -110.877947 318 24312ft 314kts
01-Nov-18 18:39 40.385643 -110.952173 318 24349ft 314kts
01-Nov-18 18:40 40.446501 -111.029141 319 24380ft 314kts
01-Nov-18 18:41 40.502271 -111.099838 320 24393ft 315kts
01-Nov-18 18:42 40.561749 -111.175397 320 24386ft 316kts
01-Nov-18 18:43 40.623233 -111.253723 320 24383ft 316kts
01-Nov-18 18:44 40.684365 -111.331838 320 24384ft 316kts
01-Nov-18 18:45 40.743415 -111.407490 320 24371ft 316kts
01-Nov-18 18:46 40.803074 -111.484137 320 24357ft 316kts
01-Nov-18 18:47 40.859244 -111.556467 320 24351ft 316kts
01-Nov-18 18:48 40.919014 -111.633633 320 24342ft 316kts
01-Nov-18 18:49 40.981304 -111.714245 319 24340ft 316kts
01-Nov-18 18:50 41.043913 -111.795512 318 24339ft 315kts
01-Nov-18 18:51 41.102014 -111.871145 318 24340ft 313kts
01-Nov-18 18:53 41.160405 -111.947400 317 24352ft 313kts
01-Nov-18 18:54 41.219670 -112.024978 317 24350ft 314kts
01-Nov-18 18:55 41.279667 -112.103698 317 24349ft 316kts
01-Nov-18 18:56 41.336276 -112.178217 317 24352ft 316kts
01-Nov-18 18:57 41.398089 -112.259755 317 24358ft 316kts
01-Nov-18 18:58 41.460054 -112.341739 317 24359ft 315kts
01-Nov-18 18:59 41.521963 -112.423898 317 24359ft 313kts
01-Nov-18 19:00 41.583539 -112.505847 317 24359ft 312kts
01-Nov-18 19:01 41.644886 -112.587722 317 24357ft 312kts
01-Nov-18 19:02 41.706083 -112.669627 317 24364ft 312kts
01-Nov-18 19:03 41.767281 -112.751750 317 24361ft 312kts
01-Nov-18 19:04 41.828151 -112.833689 317 24356ft 312kts
01-Nov-18 19:05 41.888603 -112.915292 317 24332ft 313kts
01-Nov-18 19:06 41.949472 -112.997689 317 24291ft 314kts
01-Nov-18 19:07 42.010341 -113.080314 317 24273ft 315kts
01-Nov-18 19:08 42.070859 -113.162696 317 24272ft 314kts
01-Nov-18 19:09 42.131689 -113.245767 317 24288ft 315kts
01-Nov-18 19:10 42.191688 -113.327915 317 24284ft 316kts
01-Nov-18 19:11 42.247821 -113.404996 317 24283ft 316kts
01-Nov-18 19:12 42.307659 -113.487395 317 24281ft 316kts
01-Nov-18 19:13 42.368886 -113.571956 317 24280ft 316kts
01-Nov-18 19:14 42.430099 -113.656756 317 24280ft 316kts
01-Nov-18 19:15 42.488098 -113.737326 317 24284ft 316kts
01-Nov-18 19:16 42.549317 -113.822622 317 24281ft 316kts
01-Nov-18 19:17 42.606671 -113.911830 311 24297ft 314kts
01-Nov-18 19:18 42.660288 -114.003898 311 24289ft 313kts
01-Nov-18 19:19 42.713214 -114.095489 311 24293ft 313kts
01-Nov-18 19:20 42.763680 -114.183115 311 24299ft 312kts
01-Nov-18 19:21 42.812424 -114.268013 311 24302ft 312kts
01-Nov-18 19:22 42.864335 -114.358688 311 24302ft 312kts
01-Nov-18 19:23 42.914708 -114.446907 310 24301ft 311kts
01-Nov-18 19:24 42.966185 -114.537369 310 24298ft 310kts
01-Nov-18 19:25 43.016582 -114.626190 309 24296ft 308kts
01-Nov-18 19:26 43.067996 -114.717135 309 24301ft 307kts
01-Nov-18 19:27 43.118765 -114.807170 309 24309ft 308kts
01-Nov-18 19:28 43.171056 -114.900199 309 24310ft 309kts
01-Nov-18 19:29 43.222189 -114.991439 308 24309ft 309kts
01-Nov-18 19:30 43.271167 -115.079101 308 24299ft 309kts
01-Nov-18 19:31 43.321302 -115.169098 308 24293ft 309kts
01-Nov-18 19:32 43.371887 -115.260217 308 24290ft 309kts
01-Nov-18 19:33 43.414966 -115.338030 308 24286ft 308kts
01-Nov-18 19:34 43.459701 -115.419037 308 24286ft 305kts
01-Nov-18 19:35 43.501918 -115.495704 308 24285ft 302kts
01-Nov-18 19:36 43.540813 -115.566509 308 24284ft 300kts
01-Nov-18 19:37 43.587329 -115.651414 307 24285ft 300kts
01-Nov-18 19:38 43.637819 -115.743926 307 24294ft 304kts
01-Nov-18 19:39 43.686732 -115.839561 306 24292ft 307kts
01-Nov-18 19:40 43.735117 -115.934799 306 24289ft 308kts
01-Nov-18 19:41 43.774756 -116.013070 306 24287ft 309kts
01-Nov-18 19:42 43.797067 -116.056899 303 24392ft 318kts
01-Nov-18 19:43 43.818176 -116.098335 292 24330ft 342kts
01-Nov-18 19:44 43.869127 -116.200245 295 24329ft 385kts
01-Nov-18 19:45 43.911676 -116.284370 301 24422ft 372kts
01-Nov-18 19:46 43.967436 -116.396691 315 24283ft 409kts
01-Nov-18 19:47 44.033690 -116.529554 314 24301ft 426kts
01-Nov-18 19:48 44.101237 -116.665833 313 24290ft 432kts
01-Nov-18 19:49 44.147915 -116.759770 295 24319ft 431kts
01-Nov-18 19:50 44.214310 -116.895200 294 24289ft 426kts
01-Nov-18 19:51 44.273047 -117.015343 294 24286ft 426kts
01-Nov-18 19:52 44.339635 -117.151960 294 24286ft 426kts
01-Nov-18 19:53 44.410776 -117.284830 298 24287ft 431kts
01-Nov-18 19:54 44.484339 -117.417490 298 24290ft 431kts
01-Nov-18 19:55 44.557491 -117.550010 298 24291ft 431kts
01-Nov-18 19:56 44.630472 -117.682802 298 24291ft 431kts
01-Nov-18 19:57 44.703441 -117.816229 297 24294ft 431kts
01-Nov-18 19:58 44.775953 -117.949438 297 24297ft 431kts
01-Nov-18 19:59 44.848419 -118.083176 297 24297ft 431kts
01-Nov-18 20:00 44.918819 -118.213699 297 24302ft 431kts
01-Nov-18 20:01 44.990239 -118.346061 302 24290ft 437kts
01-Nov-18 20:02 45.072765 -118.472713 305 24304ft 439kts
01-Nov-18 20:03 45.155495 -118.598367 304 24283ft 438kts
01-Nov-18 20:04 45.237296 -118.723194 303 24283ft 436kts
01-Nov-18 20:05 45.319155 -118.848641 303 24287ft 435kts
01-Nov-18 20:06 45.401137 -118.974878 304 24290ft 436kts
01-Nov-18 20:07 45.483155 -119.101744 304 24288ft 436kts
01-Nov-18 20:08 45.563117 -119.226003 304 24291ft 436kts
01-Nov-18 20:09 45.639507 -119.345205 303 24294ft 436kts
01-Nov-18 20:10 45.714071 -119.462102 303 24297ft 437kts
01-Nov-18 20:11 45.788784 -119.579721 303 24298ft 437kts
01-Nov-18 20:11 45.848520 -119.674104 303 24299ft 437kts
01-Nov-18 20:13 45.931054 -119.805086 303 24300ft 437kts
01-Nov-18 20:13 45.990743 -119.900204 303 24301ft 437kts
01-Nov-18 20:15 46.077450 -120.038960 303 24304ft 437kts
01-Nov-18 20:15 46.137331 -120.135178 303 24284ft 436kts
01-Nov-18 20:16 46.205655 -120.245422 303 24283ft 434kts
01-Nov-18 20:17 46.275428 -120.358444 303 24285ft 434kts
01-Nov-18 20:18 46.344885 -120.471412 302 24288ft 434kts
01-Nov-18 20:19 46.417480 -120.590018 303 24289ft 434kts
01-Nov-18 20:21 46.498878 -120.723566 302 24289ft 434kts
01-Nov-18 20:21 46.549606 -120.807164 302 24291ft 434kts
01-Nov-18 20:22 46.606146 -120.900620 302 24293ft 434kts
01-Nov-18 20:23 46.660979 -120.991567 302 24294ft 434kts
01-Nov-18 20:24 46.718224 -121.086842 302 24297ft 434kts
01-Nov-18 20:25 46.779509 -121.189203 302 24299ft 435kts
01-Nov-18 20:26 46.842584 -121.294948 302 24300ft 435kts
01-Nov-18 20:27 46.914311 -121.415723 302 24301ft 435kts
01-Nov-18 20:28 46.984803 -121.534853 302 23857ft 438kts
01-Nov-18 20:29 47.061147 -121.664483 299 22402ft 402kts
01-Nov-18 20:30 47.129437 -121.781097 299 20911ft 361kts
01-Nov-18 20:31 47.188978 -121.883231 299 19430ft 329kts
01-Nov-18 20:32 47.241854 -121.974256 301 18007ft 304kts
01-Nov-18 20:33 47.289101 -122.055832 303 16646ft 286kts
01-Nov-18 20:34 47.338897 -122.142054 305 15125ft 271kts
01-Nov-18 20:35 47.384722 -122.221447 306 14452ft 231kts
01-Nov-18 20:36 47.420496 -122.283557 304 14711ft 175kts
01-Nov-18 20:37 47.452779 -122.330775 312 14195ft 174kts
01-Nov-18 20:38 47.496261 -122.377311 325 12639ft 213kts
01-Nov-18 20:39 47.551623 -122.425551 328 11070ft 265kts
01-Nov-18 20:40 47.616502 -122.481420 328 10144ft 261kts
01-Nov-18 20:41 47.676100 -122.532945 327 10043ft 241kts
01-Nov-18 20:42 47.734984 -122.583980 327 9136ft 247kts
01-Nov-18 20:43 47.786182 -122.628455 327 8265ft 249kts
01-Nov-18 20:44 47.845056 -122.679726 324 7303ft 269kts
01-Nov-18 20:45 47.909862 -122.736479 327 6354ft 282kts
01-Nov-18 20:46 47.978025 -122.796165 329 5392ft 289kts
01-Nov-18 20:47 48.030921 -122.872603 285 4680ft 245kts
01-Nov-18 20:48 48.044352 -122.955625 277 4958ft 178kts
01-Nov-18 20:49 48.052441 -123.019976 276 4913ft 135kts
01-Nov-18 20:50 48.058616 -123.072400 274 4397ft 136kts
01-Nov-18 20:51 48.066476 -123.139084 276 3795ft 177kts
01-Nov-18 20:52 48.075079 -123.212832 277 2985ft 180kts
01-Nov-18 20:53 48.082891 -123.280244 277 2912ft 151kts
01-Nov-18 20:54 48.092368 -123.346463 282 2968ft 175kts
01-Nov-18 20:55 48.105644 -123.418814 286 2257ft 174kts
01-Nov-18 20:56 48.115028 -123.476655 283 547ft 120kts
01-Nov-18 20:57 48.118706 -123.501975 194 280ft 0kts
01-Nov-18 20:58 48.117991 -123.500484 106 274ft 18kts
01-Nov-18 20:59 48.116531 -123.491975 122 289ft 16kts
01-Nov-18 21:00 48.115960 -123.490983 193 298ft 0kts
01-Nov-18 21:01 48.115960 -123.490983 193 298ft 0kts
01-Nov-18 21:02 48.115960 -123.490983 193 298ft 0kts
01-Nov-18 21:03 48.115960 -123.490983 193 298ft 0kts
01-Nov-18 21:04 48.115960 -123.490983 193 298ft 0kts
01-Nov-18 21:05 48.115960 -123.490983 193 298ft 0kts

Navigation Log

Ident Type
Flight plan parsing failed, navigation log unavailable